Terminal Aerodrome Forecast
Issued by NWS Brownsville, TX

Home | Current Version | Previous Version | Text Only | Print | Product List | Glossary On
Versions: 1 2 3 4 5 6 7 8 9 10 11 12 13 14
000
FTUS44 KBRO 282339
TAFMFE
TAF
KMFE 282339Z 2900/2924 15016G22KT P6SM SCT050
     FM290200 14011KT P6SM FEW030
     FM290600 14006KT P6SM SCT018
      TEMPO 2908/2912 BKN018
     FM291500 14011KT P6SM SCT035=

USA.gov is the U.S. government's official web portal to all federal, state and local government web resources and services.